CYZG

Salluit Airport

ICAO Code CYZG
IATA Code YZG
Name Salluit Airport
Location Salluit, Quebec, CA
Elevation 745 Feet / 227.1 Meters
Latitude 62.17944444
Longitude -75.66722222
METAR CYZG 181900Z 04003KT 0SM -DZ FG VV000 12/12 A2980 RMK FG8 LAST STFD OBS/NEXT191200 UTC SLP105 DENSITY ALT 800FT
Extra information Display NOTAMS
Display Charts
Runway Length Width Surface Elevation
03 3523 ft 100 ft GRAVEL 723 ft
21 3523 ft 100 ft GRAVEL 745 ft